createdAt,value
2019-03-28T00:00:08.069Z,17.45
2019-03-28T00:02:37.270Z,17.32
2019-03-28T00:05:06.689Z,18.65
2019-03-28T00:07:36.172Z,18.42
2019-03-28T00:10:05.693Z,19.52
2019-03-28T00:12:34.909Z,18.35
2019-03-28T00:15:04.410Z,21.07
2019-03-28T00:17:33.725Z,20.37
2019-03-28T00:20:04.333Z,20.48
2019-03-28T00:22:57.036Z,22.35
2019-03-28T00:25:27.402Z,20.95
2019-03-28T00:27:56.668Z,22.50
2019-03-28T00:30:25.951Z,23.65
2019-03-28T00:32:55.186Z,23.10
2019-03-28T00:35:24.534Z,20.88
2019-03-28T00:37:53.779Z,23.20
2019-03-28T00:40:23.087Z,24.05
2019-03-28T00:42:52.599Z,24.80
2019-03-28T00:45:21.854Z,24.87
2019-03-28T00:47:51.135Z,26.30
2019-03-28T00:50:20.614Z,26.85
2019-03-28T00:52:49.858Z,25.85
2019-03-28T00:55:19.118Z,26.25
2019-03-28T00:57:48.412Z,28.60
2019-03-28T01:00:18.065Z,26.77
2019-03-28T01:02:47.803Z,23.77
2019-03-28T01:05:17.388Z,23.18
2019-03-28T01:07:47.268Z,25.05
2019-03-28T01:10:16.985Z,22.85
2019-03-28T01:12:46.224Z,23.32
2019-03-28T01:15:15.613Z,24.95
2019-03-28T01:17:44.842Z,25.43
2019-03-28T01:20:14.433Z,25.00
2019-03-28T01:22:43.776Z,25.48
2019-03-28T01:25:13.110Z,24.43
2019-03-28T01:27:42.596Z,23.02
2019-03-28T01:30:12.119Z,22.45
2019-03-28T01:32:41.370Z,22.32
2019-03-28T01:35:10.761Z,22.80
2019-03-28T01:37:40.231Z,23.85
2019-03-28T01:40:09.792Z,23.18
2019-03-28T01:42:39.552Z,22.93
2019-03-28T01:45:09.197Z,23.95
2019-03-28T01:47:38.451Z,23.60
2019-03-28T01:50:09.312Z,25.20
2019-03-28T01:52:38.809Z,25.23
2019-03-28T01:55:08.426Z,24.57
2019-03-28T01:57:38.286Z,25.85
2019-03-28T02:00:08.452Z,25.10
2019-03-28T02:02:37.953Z,24.30
2019-03-28T02:05:08.077Z,25.75
2019-03-28T02:07:37.553Z,24.57
2019-03-28T02:10:07.672Z,26.33
2019-03-28T02:12:36.925Z,26.50
2019-03-28T02:15:07.202Z,26.52
2019-03-28T02:17:37.259Z,26.68
2019-03-28T02:20:07.122Z,25.77
2019-03-28T02:22:36.377Z,26.73
2019-03-28T02:25:06.030Z,25.20
2019-03-28T02:27:35.541Z,25.17
2019-03-28T02:30:06.325Z,25.52
2019-03-28T02:32:35.823Z,25.17
2019-03-28T02:35:05.966Z,25.95
2019-03-28T02:37:35.211Z,26.40
2019-03-28T02:40:05.061Z,27.02
2019-03-28T02:42:34.297Z,28.02
2019-03-28T02:45:04.275Z,26.00
2019-03-28T02:47:33.493Z,26.20
2019-03-28T02:50:02.742Z,26.35
2019-03-28T02:52:32.451Z,26.25
2019-03-28T02:55:02.204Z,26.90
2019-03-28T02:57:40.952Z,27.17
2019-03-28T03:00:02.712Z,27.52
2019-03-28T03:02:32.687Z,27.77
2019-03-28T03:05:02.373Z,26.87
2019-03-28T03:07:33.343Z,27.62
2019-03-28T03:10:02.856Z,28.73
2019-03-28T03:12:32.080Z,28.32
2019-03-28T03:15:01.804Z,29.82
2019-03-28T03:17:31.037Z,29.45
2019-03-28T03:20:00.386Z,29.60
2019-03-28T03:22:29.634Z,29.63
2019-03-28T03:24:59.120Z,30.23
2019-03-28T03:27:28.608Z,30.82
2019-03-28T03:29:58.352Z,30.48
2019-03-28T03:32:27.827Z,31.57
2019-03-28T03:34:57.107Z,30.62
2019-03-28T03:37:26.838Z,33.20
2019-03-28T03:39:56.368Z,32.17
2019-03-28T03:42:26.195Z,32.42
2019-03-28T03:44:55.440Z,33.53
2019-03-28T03:47:24.750Z,33.90
2019-03-28T03:49:54.465Z,34.55
2019-03-28T03:52:23.961Z,36.35
2019-03-28T03:54:53.451Z,34.55
2019-03-28T03:57:22.978Z,34.30
2019-03-28T03:59:52.186Z,33.28
2019-03-28T04:02:21.649Z,34.92
2019-03-28T04:04:51.120Z,34.43
2019-03-28T04:07:20.355Z,34.95
2019-03-28T04:09:49.585Z,35.08
2019-03-28T04:12:19.062Z,33.70
2019-03-28T04:14:48.295Z,33.67
2019-03-28T04:17:18.297Z,33.55
2019-03-28T04:19:48.247Z,34.45
2019-03-28T04:22:17.784Z,34.55
2019-03-28T04:24:47.727Z,33.73
2019-03-28T04:27:17.306Z,32.75
2019-03-28T04:29:46.517Z,32.70
2019-03-28T04:32:15.986Z,33.35
2019-03-28T04:34:45.229Z,33.53
2019-03-28T04:37:14.682Z,34.33
2019-03-28T04:39:44.077Z,33.18
2019-03-28T04:42:13.298Z,35.23
2019-03-28T04:44:42.528Z,33.65
2019-03-28T04:47:12.011Z,34.23
2019-03-28T04:49:41.720Z,35.73
2019-03-28T04:52:11.447Z,34.27
2019-03-28T04:54:40.711Z,32.63
2019-03-28T04:57:10.184Z,34.20
2019-03-28T04:59:39.695Z,34.35
2019-03-28T05:02:09.014Z,35.80
2019-03-28T05:04:38.496Z,33.35
2019-03-28T05:07:07.993Z,34.27
2019-03-28T05:09:37.718Z,31.40
2019-03-28T05:12:07.212Z,32.53
2019-03-28T05:14:36.439Z,33.60
2019-03-28T05:17:05.658Z,35.28
2019-03-28T05:19:35.452Z,34.50
2019-03-28T05:22:04.666Z,34.18
2019-03-28T05:24:34.165Z,48.15
2019-03-28T05:27:03.394Z,36.55
2019-03-28T05:29:32.644Z,33.40
2019-03-28T05:32:01.888Z,32.80
2019-03-28T05:34:31.630Z,49.00
2019-03-28T05:37:00.934Z,46.30
2019-03-28T05:39:30.193Z,35.78
2019-03-28T05:42:01.813Z,33.35
2019-03-28T05:44:31.563Z,33.90
2019-03-28T05:47:00.792Z,34.33
2019-03-28T05:49:30.324Z,34.45
2019-03-28T05:52:00.029Z,34.50
2019-03-28T05:54:29.354Z,32.98
2019-03-28T05:56:59.065Z,34.53
2019-03-28T05:59:28.320Z,34.43
2019-03-28T06:01:58.271Z,32.98
2019-03-28T06:04:28.236Z,33.75
2019-03-28T06:06:57.458Z,35.03
2019-03-28T06:09:26.682Z,33.78
2019-03-28T06:11:56.405Z,33.75
2019-03-28T06:14:26.927Z,34.05
2019-03-28T06:16:56.145Z,32.38
2019-03-28T06:19:25.630Z,33.42
2019-03-28T06:21:55.086Z,32.78
2019-03-28T06:24:24.570Z,32.42
2019-03-28T06:26:54.038Z,30.75
2019-03-28T06:29:24.474Z,31.75
2019-03-28T06:31:55.878Z,31.80
2019-03-28T06:34:26.440Z,32.20
2019-03-28T06:36:56.059Z,32.90
2019-03-28T06:39:25.822Z,32.25
2019-03-28T06:41:55.292Z,31.50
2019-03-28T06:44:24.534Z,31.23
2019-03-28T06:46:54.057Z,33.90
2019-03-28T06:49:23.565Z,35.08
2019-03-28T06:51:53.046Z,34.00
2019-03-28T06:54:24.277Z,35.63
2019-03-28T06:56:53.772Z,34.48
2019-03-28T06:59:36.274Z,35.83
2019-03-28T07:01:54.214Z,35.83
2019-03-28T07:04:23.692Z,34.33
2019-03-28T07:06:53.326Z,33.48
2019-03-28T07:09:25.695Z,36.42
2019-03-28T07:11:54.984Z,35.70
2019-03-28T07:14:25.393Z,35.60
2019-03-28T07:16:56.167Z,32.67
2019-03-28T07:19:25.700Z,32.35
2019-03-28T07:21:54.960Z,32.00
2019-03-28T07:24:24.185Z,32.03
2019-03-28T07:26:53.569Z,31.37
2019-03-28T07:29:23.065Z,33.88
2019-03-28T07:31:52.560Z,34.55
2019-03-28T07:34:21.831Z,31.42
2019-03-28T07:36:51.051Z,35.68
2019-03-28T07:39:20.910Z,35.73
2019-03-28T07:41:50.123Z,29.75
2019-03-28T07:44:19.898Z,32.20
2019-03-28T07:46:49.403Z,33.08
2019-03-28T07:49:18.644Z,32.15
2019-03-28T07:51:48.306Z,29.07
2019-03-28T07:54:18.390Z,29.32
2019-03-28T07:56:48.289Z,26.37
2019-03-28T07:59:17.526Z,25.75
2019-03-28T08:01:47.267Z,26.05
2019-03-28T08:04:17.305Z,27.67
2019-03-28T08:06:50.063Z,25.77
2019-03-28T08:09:17.855Z,23.33
2019-03-28T08:11:48.422Z,20.90
2019-03-28T08:14:17.670Z,20.00
2019-03-28T08:16:46.938Z,17.12
2019-03-28T08:19:16.244Z,14.20
2019-03-28T08:21:46.334Z,18.00
2019-03-28T08:24:15.596Z,22.02
2019-03-28T08:26:45.425Z,24.00
2019-03-28T08:29:14.670Z,23.73
2019-03-28T08:31:45.797Z,19.98
2019-03-28T08:34:15.354Z,20.97
2019-03-28T08:36:45.063Z,21.85
2019-03-28T08:39:14.738Z,21.30
2019-03-28T08:41:44.626Z,20.92
2019-03-28T08:44:13.908Z,19.70
2019-03-28T08:46:43.547Z,18.82
2019-03-28T08:49:12.866Z,18.48
2019-03-28T08:51:42.437Z,20.23
2019-03-28T08:54:11.677Z,20.10
2019-03-28T08:56:41.239Z,18.42
2019-03-28T08:59:11.073Z,14.90
2019-03-28T09:01:40.673Z,15.75
2019-03-28T09:04:09.931Z,12.90
2019-03-28T09:06:39.576Z,15.15
2019-03-28T09:09:10.428Z,14.68
2019-03-28T09:11:40.344Z,13.55
2019-03-28T09:14:09.830Z,12.85
2019-03-28T09:16:39.429Z,11.63
2019-03-28T09:19:09.049Z,10.32
2019-03-28T09:21:38.392Z,9.13
2019-03-28T09:24:07.878Z,11.78
2019-03-28T09:26:37.380Z,12.73
2019-03-28T09:29:06.701Z,11.75
2019-03-28T09:31:36.008Z,10.38
2019-03-28T09:34:05.269Z,10.08
2019-03-28T09:36:35.023Z,9.20
2019-03-28T09:39:07.442Z,11.25
2019-03-28T09:41:36.677Z,11.12
2019-03-28T09:44:06.152Z,11.22
2019-03-28T09:46:35.760Z,11.28
2019-03-28T09:49:05.655Z,11.88
2019-03-28T09:51:35.405Z,12.85
2019-03-28T09:54:05.393Z,11.25
2019-03-28T09:56:34.677Z,13.50
2019-03-28T09:59:03.966Z,12.15
2019-03-28T10:01:33.840Z,11.78
2019-03-28T10:04:06.295Z,11.38
2019-03-28T10:06:34.778Z,9.15
2019-03-28T10:09:05.473Z,10.82
2019-03-28T10:11:34.968Z,7.62
2019-03-28T10:14:04.315Z,9.25
2019-03-28T10:16:33.813Z,8.95
2019-03-28T10:19:03.368Z,8.53
2019-03-28T10:21:33.312Z,8.23
2019-03-28T10:24:04.060Z,8.35
2019-03-28T10:26:33.816Z,7.10
2019-03-28T10:29:03.270Z,7.30
2019-03-28T10:31:32.978Z,8.90
2019-03-28T10:34:02.632Z,11.28
2019-03-28T10:36:32.190Z,9.15
2019-03-28T10:39:02.087Z,8.23
2019-03-28T10:41:32.132Z,7.30
2019-03-28T10:44:01.725Z,6.92
2019-03-28T10:46:31.270Z,3.30
2019-03-28T10:49:01.327Z,3.50
2019-03-28T10:51:30.560Z,3.75
2019-03-28T10:54:00.055Z,4.20
2019-03-28T10:56:32.451Z,3.50
2019-03-28T10:59:01.673Z,3.90
2019-03-28T11:01:47.566Z,3.85
2019-03-28T11:04:03.300Z,3.75
2019-03-28T11:06:32.935Z,4.10
2019-03-28T11:09:03.613Z,3.87
2019-03-28T11:11:33.136Z,3.45
2019-03-28T11:14:02.958Z,3.50
2019-03-28T11:16:32.563Z,4.80
2019-03-28T11:19:02.173Z,4.28
2019-03-28T11:21:34.174Z,4.47
2019-03-28T11:24:02.692Z,4.47
2019-03-28T11:26:31.908Z,3.50
2019-03-28T11:29:01.239Z,3.70
2019-03-28T11:31:30.468Z,3.72
2019-03-28T11:33:59.705Z,3.70
2019-03-28T11:36:29.252Z,3.80
2019-03-28T11:38:58.782Z,3.83
2019-03-28T11:41:28.590Z,3.92
2019-03-28T11:43:58.175Z,4.05
2019-03-28T11:46:27.719Z,4.20
2019-03-28T11:48:57.231Z,4.50
2019-03-28T11:51:26.556Z,4.67
2019-03-28T11:53:56.194Z,3.77
2019-03-28T11:56:25.726Z,4.53
2019-03-28T11:58:55.272Z,4.15
2019-03-28T12:01:24.578Z,3.92
2019-03-28T12:03:54.062Z,4.00
2019-03-28T12:06:23.658Z,4.05
2019-03-28T12:08:55.822Z,4.80
2019-03-28T12:11:23.901Z,5.20
2019-03-28T12:13:53.117Z,5.67
2019-03-28T12:16:22.715Z,6.78
2019-03-28T12:18:52.227Z,5.83
2019-03-28T12:21:21.548Z,5.20
2019-03-28T12:23:50.788Z,5.05
2019-03-28T12:26:20.338Z,5.20
2019-03-28T12:28:50.099Z,4.70
2019-03-28T12:31:20.218Z,4.42
2019-03-28T12:33:49.448Z,4.65
2019-03-28T12:36:19.415Z,5.05
2019-03-28T12:38:48.872Z,5.05
2019-03-28T12:41:18.365Z,6.15
2019-03-28T12:43:47.591Z,5.05
2019-03-28T12:46:17.369Z,4.92
2019-03-28T12:48:46.840Z,4.78
2019-03-28T12:51:16.103Z,5.50
2019-03-28T12:53:45.601Z,4.33
2019-03-28T12:56:16.162Z,4.55
2019-03-28T12:58:45.664Z,5.30
2019-03-28T13:01:15.139Z,4.70
2019-03-28T13:03:46.119Z,4.85
2019-03-28T13:06:16.126Z,5.00
2019-03-28T13:08:45.731Z,4.55
2019-03-28T13:11:15.611Z,5.03
2019-03-28T13:13:45.138Z,5.22
2019-03-28T13:16:14.608Z,5.30
2019-03-28T13:18:44.358Z,5.08
2019-03-28T13:21:14.279Z,4.75
2019-03-28T13:23:44.112Z,4.55
2019-03-28T13:26:13.625Z,4.40
2019-03-28T13:28:43.645Z,4.70
2019-03-28T13:31:13.397Z,5.10
2019-03-28T13:33:42.955Z,4.20
2019-03-28T13:36:12.169Z,4.45
2019-03-28T13:38:41.991Z,4.47
2019-03-28T13:41:11.493Z,5.05
2019-03-28T13:43:40.963Z,5.10
2019-03-28T13:46:10.459Z,4.75
2019-03-28T13:48:40.191Z,4.70
2019-03-28T13:51:09.435Z,4.75
2019-03-28T13:53:40.095Z,5.28
2019-03-28T13:56:09.669Z,5.72
2019-03-28T13:58:39.453Z,6.55
2019-03-28T14:01:09.162Z,5.78
2019-03-28T14:03:38.678Z,6.47
2019-03-28T14:06:08.734Z,6.05
2019-03-28T14:08:37.959Z,6.58
2019-03-28T14:11:07.808Z,6.22
2019-03-28T14:13:37.555Z,5.92
2019-03-28T14:16:07.041Z,7.17
2019-03-28T14:18:36.520Z,6.97
2019-03-28T14:21:06.084Z,8.23
2019-03-28T14:23:35.313Z,6.62
2019-03-28T14:26:04.877Z,5.97
2019-03-28T14:28:34.106Z,6.20
2019-03-28T14:31:03.325Z,6.35
2019-03-28T14:33:32.781Z,5.95
2019-03-28T14:36:02.029Z,6.42
2019-03-28T14:38:31.793Z,5.67
2019-03-28T14:41:01.060Z,5.65
2019-03-28T14:43:30.398Z,6.12
2019-03-28T14:45:59.890Z,5.67
2019-03-28T14:48:29.127Z,5.80
2019-03-28T14:50:58.356Z,6.28
2019-03-28T14:53:28.733Z,6.03
2019-03-28T14:55:59.317Z,5.20
2019-03-28T14:58:29.633Z,5.37
2019-03-28T15:00:58.968Z,6.25
2019-03-28T15:03:28.186Z,5.87
2019-03-28T15:05:58.554Z,5.72
2019-03-28T15:08:27.986Z,6.15
2019-03-28T15:10:57.564Z,5.58
2019-03-28T15:13:27.390Z,6.30
2019-03-28T15:15:56.637Z,5.60
2019-03-28T15:18:26.213Z,6.28
2019-03-28T15:20:55.887Z,6.37
2019-03-28T15:23:25.468Z,5.70
2019-03-28T15:25:55.084Z,5.40
2019-03-28T15:28:24.402Z,5.03
2019-03-28T15:30:53.694Z,5.58
2019-03-28T15:33:23.023Z,5.22
2019-03-28T15:35:52.832Z,5.58
2019-03-28T15:38:22.063Z,4.75
2019-03-28T15:40:51.632Z,6.50
2019-03-28T15:43:21.143Z,4.90
2019-03-28T15:45:51.318Z,5.00
2019-03-28T15:48:20.567Z,5.37
2019-03-28T15:50:49.811Z,5.35
2019-03-28T15:53:19.395Z,5.40
2019-03-28T15:55:48.742Z,5.28
2019-03-28T15:58:23.412Z,4.78
2019-03-28T16:00:49.469Z,5.80
2019-03-28T16:03:18.947Z,5.08
2019-03-28T16:05:58.232Z,5.25
2019-03-28T16:08:19.435Z,4.80
2019-03-28T16:10:49.182Z,5.33
2019-03-28T16:13:18.661Z,5.05
2019-03-28T16:15:48.180Z,5.00
2019-03-28T16:18:17.427Z,5.42
2019-03-28T16:20:47.356Z,6.85
2019-03-28T16:23:16.635Z,5.95
2019-03-28T16:25:46.387Z,5.53
2019-03-28T16:28:15.874Z,5.25
2019-03-28T16:30:45.127Z,5.95
2019-03-28T16:33:14.358Z,5.65
2019-03-28T16:35:43.871Z,6.00
2019-03-28T16:38:13.178Z,5.75
2019-03-28T16:40:42.698Z,6.80
2019-03-28T16:43:11.995Z,6.75
2019-03-28T16:45:41.833Z,7.62
2019-03-28T16:48:11.065Z,7.33
2019-03-28T16:50:40.350Z,8.48
2019-03-28T16:53:09.893Z,8.20
2019-03-28T16:55:39.801Z,7.90
2019-03-28T16:58:09.172Z,9.13
2019-03-28T17:00:39.468Z,9.10
2019-03-28T17:03:09.682Z,8.63
2019-03-28T17:05:39.258Z,8.83
2019-03-28T17:08:08.729Z,9.00
2019-03-28T17:11:02.994Z,9.08
2019-03-28T17:13:32.315Z,8.58
2019-03-28T17:16:01.590Z,8.23
2019-03-28T17:18:31.390Z,7.83
2019-03-28T17:21:01.652Z,7.80
2019-03-28T17:23:31.211Z,9.28
2019-03-28T17:26:00.495Z,9.78
2019-03-28T17:28:30.472Z,9.05
2019-03-28T17:31:00.352Z,9.60
2019-03-28T17:33:29.839Z,10.50
2019-03-28T17:35:59.618Z,10.68
2019-03-28T17:38:28.997Z,9.55
2019-03-28T17:40:58.483Z,8.80
2019-03-28T17:43:27.740Z,10.45
2019-03-28T17:45:56.986Z,11.70
2019-03-28T17:48:28.521Z,10.53
2019-03-28T17:50:57.505Z,7.92
2019-03-28T17:53:26.974Z,16.82
2019-03-28T17:55:56.216Z,12.68
2019-03-28T17:58:25.429Z,10.13
2019-03-28T18:00:54.734Z,8.95
2019-03-28T18:03:31.151Z,8.50
2019-03-28T18:05:58.271Z,8.23
2019-03-28T18:08:26.567Z,8.75
2019-03-28T18:10:56.205Z,13.43
2019-03-28T18:13:25.372Z,12.47
2019-03-28T18:15:54.885Z,16.55
2019-03-28T18:18:24.101Z,16.37
2019-03-28T18:20:53.813Z,9.30
2019-03-28T18:23:23.758Z,16.85
2019-03-28T18:25:53.183Z,15.65
2019-03-28T18:28:23.254Z,13.88
2019-03-28T18:30:52.491Z,15.03
2019-03-28T18:33:21.966Z,15.50
2019-03-28T18:35:51.454Z,17.20
2019-03-28T18:38:20.929Z,19.35
2019-03-28T18:40:50.687Z,17.50
2019-03-28T18:43:19.915Z,10.75
2019-03-28T18:45:49.153Z,21.37
2019-03-28T18:48:29.052Z,15.38
2019-03-28T18:50:49.510Z,15.23
2019-03-28T18:53:19.000Z,16.93
2019-03-28T18:55:48.311Z,16.02
2019-03-28T18:58:17.819Z,17.37
2019-03-28T19:00:48.363Z,15.05
2019-03-28T19:03:17.878Z,13.32
2019-03-28T19:05:48.692Z,11.85
2019-03-28T19:08:18.549Z,11.53
2019-03-28T19:10:50.747Z,9.60
2019-03-28T19:13:18.769Z,20.60
2019-03-28T19:15:47.995Z,20.85
2019-03-28T19:18:17.499Z,25.23
2019-03-28T19:20:46.724Z,23.70
2019-03-28T19:23:16.445Z,25.75
2019-03-28T19:25:47.136Z,21.10
2019-03-28T19:28:27.959Z,16.23
2019-03-28T19:30:48.036Z,16.57
2019-03-28T19:33:17.263Z,12.93
2019-03-28T19:35:47.655Z,18.48
2019-03-28T19:38:17.385Z,18.65
2019-03-28T19:40:46.949Z,14.50
2019-03-28T19:43:21.048Z,16.48
2019-03-28T19:45:47.640Z,14.38
2019-03-28T19:48:16.966Z,17.82
2019-03-28T19:50:46.458Z,20.62
2019-03-28T19:53:16.153Z,13.60
2019-03-28T19:55:45.392Z,10.70
2019-03-28T19:58:14.981Z,10.13
2019-03-28T20:00:44.616Z,9.53
2019-03-28T20:03:14.114Z,8.68
2019-03-28T20:05:48.091Z,9.40
2019-03-28T20:08:16.288Z,9.05
2019-03-28T20:10:45.923Z,9.18
2019-03-28T20:13:15.657Z,8.65
2019-03-28T20:15:44.880Z,8.73
2019-03-28T20:18:14.356Z,8.58
2019-03-28T20:20:44.088Z,9.05
2019-03-28T20:23:13.560Z,8.88
2019-03-28T20:25:43.102Z,7.90
2019-03-28T20:28:14.403Z,8.68
2019-03-28T20:30:43.781Z,8.55
2019-03-28T20:33:13.233Z,9.23
2019-03-28T20:35:42.721Z,9.23
2019-03-28T20:38:11.940Z,8.80
2019-03-28T20:40:43.328Z,8.53
2019-03-28T20:43:12.376Z,9.45
2019-03-28T20:45:41.591Z,8.93
2019-03-28T20:48:10.815Z,9.48
2019-03-28T20:50:40.115Z,8.93
2019-03-28T20:53:09.818Z,9.50
2019-03-28T20:55:39.083Z,9.45
2019-03-28T20:58:08.555Z,8.85
2019-03-28T21:00:40.932Z,8.58
2019-03-28T21:03:11.267Z,8.68
2019-03-28T21:05:41.606Z,9.25
2019-03-28T21:08:11.153Z,8.85
2019-03-28T21:10:41.559Z,8.48
2019-03-28T21:13:11.165Z,8.95
2019-03-28T21:15:40.659Z,9.53
2019-03-28T21:18:09.931Z,9.15
2019-03-28T21:20:39.795Z,10.13
2019-03-28T21:23:09.363Z,9.58
2019-03-28T21:25:39.010Z,10.32
2019-03-28T21:28:08.612Z,13.65
2019-03-28T21:30:47.162Z,11.18
2019-03-28T21:33:09.330Z,10.88
2019-03-28T21:35:39.208Z,12.28
2019-03-28T21:38:09.264Z,13.62
2019-03-28T21:40:38.565Z,13.60
2019-03-28T21:43:08.786Z,14.07
2019-03-28T21:45:38.067Z,15.80
2019-03-28T21:48:07.776Z,10.30
2019-03-28T21:50:38.271Z,10.70
2019-03-28T21:53:07.530Z,10.48
2019-03-28T21:55:37.135Z,10.00
2019-03-28T21:58:07.701Z,10.68
2019-03-28T22:00:37.551Z,11.20
2019-03-28T22:03:06.774Z,10.90
2019-03-28T22:05:36.278Z,10.40
2019-03-28T22:08:06.932Z,11.97
2019-03-28T22:10:36.518Z,14.98
2019-03-28T22:13:06.333Z,12.47
2019-03-28T22:15:35.643Z,11.48
2019-03-28T22:18:05.210Z,10.98
2019-03-28T22:20:36.064Z,11.12
2019-03-28T22:23:05.445Z,9.95
2019-03-28T22:25:34.880Z,11.18
2019-03-28T22:28:05.064Z,11.30
2019-03-28T22:30:34.357Z,10.28
2019-03-28T22:33:04.972Z,10.90
2019-03-28T22:35:34.510Z,11.45
2019-03-28T22:38:04.041Z,12.33
2019-03-28T22:40:33.608Z,11.80
2019-03-28T22:43:03.119Z,11.53
2019-03-28T22:45:32.728Z,11.35
2019-03-28T22:48:10.812Z,11.38
2019-03-28T22:50:32.938Z,11.53
2019-03-28T22:53:02.767Z,12.18
2019-03-28T22:55:32.529Z,11.22
2019-03-28T22:58:03.469Z,11.12
2019-03-28T23:00:44.940Z,12.43
2019-03-28T23:03:15.661Z,34.33
2019-03-28T23:05:45.066Z,28.23
2019-03-28T23:08:14.604Z,12.07
2019-03-28T23:10:44.164Z,12.63
2019-03-28T23:13:13.389Z,11.53
2019-03-28T23:15:43.134Z,12.23
2019-03-28T23:18:13.487Z,11.18
2019-03-28T23:20:43.001Z,11.78
2019-03-28T23:23:12.480Z,11.57
2019-03-28T23:25:41.968Z,11.20
2019-03-28T23:28:11.478Z,12.60
2019-03-28T23:30:40.650Z,13.90
2019-03-28T23:33:11.223Z,13.15
2019-03-28T23:35:41.004Z,13.50
2019-03-28T23:38:10.557Z,12.37
2019-03-28T23:40:40.058Z,10.98
2019-03-28T23:43:09.925Z,11.45
2019-03-28T23:45:39.677Z,11.30
2019-03-28T23:48:09.158Z,11.48
2019-03-28T23:50:38.923Z,10.80
2019-03-28T23:53:08.981Z,11.57
2019-03-28T23:55:38.750Z,11.20
2019-03-28T23:58:08.483Z,11.28
